sensor_id;sensor_type;location;lat;lon;timestamp;temperature;humidity
40758;DHT22;26462;47.384;19.218;2023-02-19T00:01:46;11.10;94.00
40758;DHT22;26462;47.384;19.218;2023-02-19T00:04:19;11.00;94.00
40758;DHT22;26462;47.384;19.218;2023-02-19T00:06:48;11.10;93.90
40758;DHT22;26462;47.384;19.218;2023-02-19T00:09:17;11.00;94.10
40758;DHT22;26462;47.384;19.218;2023-02-19T00:11:45;10.90;94.50
40758;DHT22;26462;47.384;19.218;2023-02-19T00:14:16;11.00;94.10
40758;DHT22;26462;47.384;19.218;2023-02-19T00:16:44;11.00;94.10
40758;DHT22;26462;47.384;19.218;2023-02-19T00:19:14;10.90;94.20
40758;DHT22;26462;47.384;19.218;2023-02-19T00:21:41;11.00;94.10
40758;DHT22;26462;47.384;19.218;2023-02-19T00:24:10;11.00;94.20
40758;DHT22;26462;47.384;19.218;2023-02-19T00:26:38;10.90;94.20
40758;DHT22;26462;47.384;19.218;2023-02-19T00:29:06;10.90;94.40
40758;DHT22;26462;47.384;19.218;2023-02-19T00:31:34;10.90;94.20
40758;DHT22;26462;47.384;19.218;2023-02-19T00:34:04;10.90;94.30
40758;DHT22;26462;47.384;19.218;2023-02-19T00:36:33;10.80;94.30
40758;DHT22;26462;47.384;19.218;2023-02-19T00:39:05;10.80;94.40
40758;DHT22;26462;47.384;19.218;2023-02-19T00:41:32;10.80;94.40
40758;DHT22;26462;47.384;19.218;2023-02-19T00:46:32;10.80;94.40
40758;DHT22;26462;47.384;19.218;2023-02-19T00:49:00;10.80;94.40
40758;DHT22;26462;47.384;19.218;2023-02-19T00:51:31;10.70;94.60
40758;DHT22;26462;47.384;19.218;2023-02-19T00:53:58;10.70;94.70
40758;DHT22;26462;47.384;19.218;2023-02-19T00:56:26;10.70;94.90
40758;DHT22;26462;47.384;19.218;2023-02-19T00:58:53;10.70;94.90
40758;DHT22;26462;47.384;19.218;2023-02-19T01:01:21;10.70;94.90
40758;DHT22;26462;47.384;19.218;2023-02-19T01:03:49;10.70;95.10
40758;DHT22;26462;47.384;19.218;2023-02-19T01:06:18;10.70;95.20
40758;DHT22;26462;47.384;19.218;2023-02-19T01:08:46;10.70;95.10
40758;DHT22;26462;47.384;19.218;2023-02-19T01:11:14;10.70;95.10
40758;DHT22;26462;47.384;19.218;2023-02-19T01:13:42;10.80;95.10
40758;DHT22;26462;47.384;19.218;2023-02-19T01:16:15;10.80;95.10
40758;DHT22;26462;47.384;19.218;2023-02-19T01:18:43;10.80;95.30
40758;DHT22;26462;47.384;19.218;2023-02-19T01:21:13;10.70;95.40
40758;DHT22;26462;47.384;19.218;2023-02-19T01:23:41;10.70;95.70
40758;DHT22;26462;47.384;19.218;2023-02-19T01:26:12;10.60;96.00
40758;DHT22;26462;47.384;19.218;2023-02-19T01:28:39;10.70;95.90
40758;DHT22;26462;47.384;19.218;2023-02-19T01:31:09;10.80;95.80
40758;DHT22;26462;47.384;19.218;2023-02-19T01:33:38;10.70;95.90
40758;DHT22;26462;47.384;19.218;2023-02-19T01:36:06;10.80;95.80
40758;DHT22;26462;47.384;19.218;2023-02-19T01:38:33;10.80;95.70
40758;DHT22;26462;47.384;19.218;2023-02-19T01:41:03;10.80;96.00
40758;DHT22;26462;47.384;19.218;2023-02-19T01:43:32;10.80;96.00
40758;DHT22;26462;47.384;19.218;2023-02-19T01:46:00;10.70;96.30
40758;DHT22;26462;47.384;19.218;2023-02-19T01:48:36;10.50;96.60
40758;DHT22;26462;47.384;19.218;2023-02-19T01:51:08;10.50;96.80
40758;DHT22;26462;47.384;19.218;2023-02-19T01:53:40;10.60;96.70
40758;DHT22;26462;47.384;19.218;2023-02-19T01:56:09;10.60;96.90
40758;DHT22;26462;47.384;19.218;2023-02-19T01:58:39;10.40;97.30
40758;DHT22;26462;47.384;19.218;2023-02-19T02:01:07;10.40;97.30
40758;DHT22;26462;47.384;19.218;2023-02-19T02:03:37;10.30;97.50
40758;DHT22;26462;47.384;19.218;2023-02-19T02:06:23;10.30;97.60
40758;DHT22;26462;47.384;19.218;2023-02-19T02:08:56;10.30;97.50
40758;DHT22;26462;47.384;19.218;2023-02-19T02:11:46;10.30;97.50
40758;DHT22;26462;47.384;19.218;2023-02-19T02:14:16;10.20;97.80
40758;DHT22;26462;47.384;19.218;2023-02-19T02:22:34;10.10;98.70
40758;DHT22;26462;47.384;19.218;2023-02-19T02:31:24;10.30;98.30
40758;DHT22;26462;47.384;19.218;2023-02-19T02:34:03;10.30;98.20
40758;DHT22;26462;47.384;19.218;2023-02-19T02:36:37;10.50;97.80
40758;DHT22;26462;47.384;19.218;2023-02-19T02:39:10;10.60;97.30
40758;DHT22;26462;47.384;19.218;2023-02-19T02:41:43;10.50;97.40
40758;DHT22;26462;47.384;19.218;2023-02-19T02:44:11;10.50;97.30
40758;DHT22;26462;47.384;19.218;2023-02-19T02:46:41;10.40;97.50
40758;DHT22;26462;47.384;19.218;2023-02-19T02:49:21;10.30;98.20
40758;DHT22;26462;47.384;19.218;2023-02-19T02:51:51;10.30;98.50
40758;DHT22;26462;47.384;19.218;2023-02-19T02:54:31;10.30;98.90
40758;DHT22;26462;47.384;19.218;2023-02-19T02:57:20;10.20;98.90
40758;DHT22;26462;47.384;19.218;2023-02-19T02:59:52;10.30;98.90
40758;DHT22;26462;47.384;19.218;2023-02-19T03:02:27;10.30;99.40
40758;DHT22;26462;47.384;19.218;2023-02-19T03:07:59;10.30;99.90
40758;DHT22;26462;47.384;19.218;2023-02-19T03:10:39;10.40;99.90
40758;DHT22;26462;47.384;19.218;2023-02-19T03:13:10;10.40;99.90
40758;DHT22;26462;47.384;19.218;2023-02-19T03:16:04;10.30;99.90
40758;DHT22;26462;47.384;19.218;2023-02-19T03:18:53;10.30;99.90
40758;DHT22;26462;47.384;19.218;2023-02-19T03:21:42;10.40;99.90
40758;DHT22;26462;47.384;19.218;2023-02-19T03:24:12;10.30;99.90
40758;DHT22;26462;47.384;19.218;2023-02-19T03:27:01;10.30;99.90
40758;DHT22;26462;47.384;19.218;2023-02-19T03:29:37;10.20;99.90
40758;DHT22;26462;47.384;19.218;2023-02-19T03:32:17;10.20;99.90
40758;DHT22;26462;47.384;19.218;2023-02-19T03:34:53;10.20;99.90
40758;DHT22;26462;47.384;19.218;2023-02-19T03:39:57;10.10;99.90
40758;DHT22;26462;47.384;19.218;2023-02-19T03:50:57;10.00;99.90
40758;DHT22;26462;47.384;19.218;2023-02-19T03:53:28;10.00;99.90
40758;DHT22;26462;47.384;19.218;2023-02-19T03:58:56;10.00;99.90
40758;DHT22;26462;47.384;19.218;2023-02-19T04:04:19;9.80;99.90
40758;DHT22;26462;47.384;19.218;2023-02-19T04:06:52;9.80;99.90
40758;DHT22;26462;47.384;19.218;2023-02-19T04:09:20;9.70;99.90
40758;DHT22;26462;47.384;19.218;2023-02-19T04:11:56;9.70;99.90
40758;DHT22;26462;47.384;19.218;2023-02-19T04:17:00;9.50;99.90
40758;DHT22;26462;47.384;19.218;2023-02-19T04:19:32;9.50;99.90
40758;DHT22;26462;47.384;19.218;2023-02-19T04:22:00;9.40;99.90
40758;DHT22;26462;47.384;19.218;2023-02-19T04:24:36;9.40;99.90
40758;DHT22;26462;47.384;19.218;2023-02-19T04:27:04;9.30;99.90
40758;DHT22;26462;47.384;19.218;2023-02-19T04:29:32;9.30;99.90
40758;DHT22;26462;47.384;19.218;2023-02-19T04:31:59;9.20;99.90
40758;DHT22;26462;47.384;19.218;2023-02-19T04:34:26;9.20;99.90
40758;DHT22;26462;47.384;19.218;2023-02-19T04:36:53;9.10;99.90
40758;DHT22;26462;47.384;19.218;2023-02-19T04:39:21;9.10;99.90
40758;DHT22;26462;47.384;19.218;2023-02-19T04:41:48;9.10;99.90
40758;DHT22;26462;47.384;19.218;2023-02-19T04:44:15;9.00;99.90
40758;DHT22;26462;47.384;19.218;2023-02-19T04:46:43;9.00;99.90
40758;DHT22;26462;47.384;19.218;2023-02-19T04:49:10;9.00;99.90
40758;DHT22;26462;47.384;19.218;2023-02-19T04:51:38;9.00;99.90
40758;DHT22;26462;47.384;19.218;2023-02-19T04:54:06;9.00;99.90
40758;DHT22;26462;47.384;19.218;2023-02-19T04:56:33;9.00;99.90
40758;DHT22;26462;47.384;19.218;2023-02-19T04:59:01;8.90;99.90
40758;DHT22;26462;47.384;19.218;2023-02-19T05:01:29;8.90;99.90
40758;DHT22;26462;47.384;19.218;2023-02-19T05:03:56;8.90;99.90
40758;DHT22;26462;47.384;19.218;2023-02-19T05:06:23;8.90;99.90
40758;DHT22;26462;47.384;19.218;2023-02-19T05:08:50;8.90;99.90
40758;DHT22;26462;47.384;19.218;2023-02-19T05:11:17;8.90;99.90
40758;DHT22;26462;47.384;19.218;2023-02-19T05:13:44;8.90;99.90
40758;DHT22;26462;47.384;19.218;2023-02-19T05:16:13;8.90;99.90
40758;DHT22;26462;47.384;19.218;2023-02-19T05:18:43;8.90;99.90
40758;DHT22;26462;47.384;19.218;2023-02-19T05:21:11;8.90;99.90
40758;DHT22;26462;47.384;19.218;2023-02-19T05:23:39;8.90;99.90
40758;DHT22;26462;47.384;19.218;2023-02-19T05:26:18;8.90;99.90
40758;DHT22;26462;47.384;19.218;2023-02-19T05:28:46;8.90;99.90
40758;DHT22;26462;47.384;19.218;2023-02-19T05:31:14;8.90;99.90
40758;DHT22;26462;47.384;19.218;2023-02-19T05:33:42;9.00;99.90
40758;DHT22;26462;47.384;19.218;2023-02-19T05:36:11;8.90;99.90
40758;DHT22;26462;47.384;19.218;2023-02-19T05:38:40;8.90;99.90
40758;DHT22;26462;47.384;19.218;2023-02-19T05:43:36;8.90;99.90
40758;DHT22;26462;47.384;19.218;2023-02-19T05:46:04;8.90;99.90
40758;DHT22;26462;47.384;19.218;2023-02-19T05:48:32;8.90;99.90
40758;DHT22;26462;47.384;19.218;2023-02-19T05:51:14;8.80;99.90
40758;DHT22;26462;47.384;19.218;2023-02-19T05:53:42;8.80;99.90
40758;DHT22;26462;47.384;19.218;2023-02-19T05:56:34;8.90;99.90
40758;DHT22;26462;47.384;19.218;2023-02-19T05:59:04;8.90;99.90
40758;DHT22;26462;47.384;19.218;2023-02-19T06:01:34;8.90;99.90
40758;DHT22;26462;47.384;19.218;2023-02-19T06:04:01;8.90;99.90
40758;DHT22;26462;47.384;19.218;2023-02-19T06:06:28;8.90;99.90
40758;DHT22;26462;47.384;19.218;2023-02-19T06:08:56;8.90;99.90
40758;DHT22;26462;47.384;19.218;2023-02-19T06:11:23;8.80;99.90
40758;DHT22;26462;47.384;19.218;2023-02-19T06:13:50;8.80;99.90
40758;DHT22;26462;47.384;19.218;2023-02-19T06:16:18;8.80;99.90
40758;DHT22;26462;47.384;19.218;2023-02-19T06:18:45;8.70;99.90
40758;DHT22;26462;47.384;19.218;2023-02-19T06:21:14;8.70;99.90
40758;DHT22;26462;47.384;19.218;2023-02-19T06:23:41;8.70;99.90
40758;DHT22;26462;47.384;19.218;2023-02-19T06:26:14;8.60;99.90
40758;DHT22;26462;47.384;19.218;2023-02-19T06:28:42;8.60;99.90
40758;DHT22;26462;47.384;19.218;2023-02-19T06:31:09;8.60;99.90
40758;DHT22;26462;47.384;19.218;2023-02-19T06:33:38;8.60;99.90
40758;DHT22;26462;47.384;19.218;2023-02-19T06:36:10;8.50;99.90
40758;DHT22;26462;47.384;19.218;2023-02-19T06:38:37;8.50;99.90
40758;DHT22;26462;47.384;19.218;2023-02-19T06:41:06;8.50;99.90
40758;DHT22;26462;47.384;19.218;2023-02-19T06:43:34;8.50;99.90
40758;DHT22;26462;47.384;19.218;2023-02-19T06:46:02;8.40;99.90
40758;DHT22;26462;47.384;19.218;2023-02-19T06:48:30;8.40;99.90
40758;DHT22;26462;47.384;19.218;2023-02-19T06:50:58;8.40;99.90
40758;DHT22;26462;47.384;19.218;2023-02-19T06:53:25;8.40;99.90
40758;DHT22;26462;47.384;19.218;2023-02-19T06:56:04;8.50;99.90
40758;DHT22;26462;47.384;19.218;2023-02-19T06:58:32;8.50;99.90
40758;DHT22;26462;47.384;19.218;2023-02-19T07:01:00;8.40;99.90
40758;DHT22;26462;47.384;19.218;2023-02-19T07:03:27;8.40;99.90
40758;DHT22;26462;47.384;19.218;2023-02-19T07:05:57;8.40;99.90
40758;DHT22;26462;47.384;19.218;2023-02-19T07:08:25;8.40;99.90
40758;DHT22;26462;47.384;19.218;2023-02-19T07:10:56;8.50;99.90
40758;DHT22;26462;47.384;19.218;2023-02-19T07:13:25;8.50;99.90
40758;DHT22;26462;47.384;19.218;2023-02-19T07:16:03;8.50;99.90
40758;DHT22;26462;47.384;19.218;2023-02-19T07:18:31;8.50;99.90
40758;DHT22;26462;47.384;19.218;2023-02-19T07:21:10;8.50;99.90
40758;DHT22;26462;47.384;19.218;2023-02-19T07:23:39;8.50;99.90
40758;DHT22;26462;47.384;19.218;2023-02-19T07:26:14;8.50;99.90
40758;DHT22;26462;47.384;19.218;2023-02-19T07:28:46;8.50;99.90
40758;DHT22;26462;47.384;19.218;2023-02-19T07:31:14;8.50;99.90
40758;DHT22;26462;47.384;19.218;2023-02-19T07:33:43;8.50;99.90
40758;DHT22;26462;47.384;19.218;2023-02-19T07:36:11;8.60;99.90
40758;DHT22;26462;47.384;19.218;2023-02-19T07:38:38;8.60;99.90
40758;DHT22;26462;47.384;19.218;2023-02-19T07:41:06;8.60;99.90
40758;DHT22;26462;47.384;19.218;2023-02-19T07:43:35;8.60;99.90
40758;DHT22;26462;47.384;19.218;2023-02-19T07:46:10;8.60;99.90
40758;DHT22;26462;47.384;19.218;2023-02-19T07:48:38;8.60;99.90
40758;DHT22;26462;47.384;19.218;2023-02-19T07:51:08;8.60;99.90
40758;DHT22;26462;47.384;19.218;2023-02-19T07:53:37;8.70;99.90
40758;DHT22;26462;47.384;19.218;2023-02-19T07:56:05;8.70;99.90
40758;DHT22;26462;47.384;19.218;2023-02-19T07:58:33;8.70;99.90
40758;DHT22;26462;47.384;19.218;2023-02-19T08:01:09;8.80;99.90
40758;DHT22;26462;47.384;19.218;2023-02-19T08:03:38;8.80;99.90
40758;DHT22;26462;47.384;19.218;2023-02-19T08:06:06;8.80;99.90
40758;DHT22;26462;47.384;19.218;2023-02-19T08:08:33;8.80;99.90
40758;DHT22;26462;47.384;19.218;2023-02-19T08:11:01;8.80;99.90
40758;DHT22;26462;47.384;19.218;2023-02-19T08:13:48;8.80;99.90
40758;DHT22;26462;47.384;19.218;2023-02-19T08:16:16;8.90;99.90
40758;DHT22;26462;47.384;19.218;2023-02-19T08:18:59;8.90;99.90
40758;DHT22;26462;47.384;19.218;2023-02-19T08:21:26;8.90;99.90
40758;DHT22;26462;47.384;19.218;2023-02-19T08:23:53;8.90;99.90
40758;DHT22;26462;47.384;19.218;2023-02-19T08:26:20;8.90;99.90
40758;DHT22;26462;47.384;19.218;2023-02-19T08:28:47;8.90;99.90
40758;DHT22;26462;47.384;19.218;2023-02-19T08:31:17;8.90;99.90
40758;DHT22;26462;47.384;19.218;2023-02-19T08:33:44;8.90;99.90
40758;DHT22;26462;47.384;19.218;2023-02-19T08:36:11;8.90;99.90
40758;DHT22;26462;47.384;19.218;2023-02-19T08:38:39;8.90;99.90
40758;DHT22;26462;47.384;19.218;2023-02-19T08:41:11;8.90;99.90
40758;DHT22;26462;47.384;19.218;2023-02-19T08:43:43;8.90;99.90
40758;DHT22;26462;47.384;19.218;2023-02-19T08:49:12;8.90;99.90
40758;DHT22;26462;47.384;19.218;2023-02-19T08:54:41;9.00;99.90
40758;DHT22;26462;47.384;19.218;2023-02-19T08:57:12;9.00;99.90
40758;DHT22;26462;47.384;19.218;2023-02-19T08:59:41;9.00;99.90
40758;DHT22;26462;47.384;19.218;2023-02-19T09:02:09;9.00;99.90
40758;DHT22;26462;47.384;19.218;2023-02-19T09:04:36;9.00;99.90
40758;DHT22;26462;47.384;19.218;2023-02-19T09:07:05;8.90;99.90
40758;DHT22;26462;47.384;19.218;2023-02-19T09:09:37;9.00;99.90
40758;DHT22;26462;47.384;19.218;2023-02-19T09:12:09;8.90;99.90
40758;DHT22;26462;47.384;19.218;2023-02-19T09:14:37;8.90;99.90
40758;DHT22;26462;47.384;19.218;2023-02-19T09:17:06;9.00;99.90
40758;DHT22;26462;47.384;19.218;2023-02-19T09:19:35;9.10;99.90
40758;DHT22;26462;47.384;19.218;2023-02-19T09:22:03;9.10;99.90
40758;DHT22;26462;47.384;19.218;2023-02-19T09:24:31;9.10;99.90
40758;DHT22;26462;47.384;19.218;2023-02-19T09:27:00;9.10;99.90
40758;DHT22;26462;47.384;19.218;2023-02-19T09:29:27;9.10;99.90
40758;DHT22;26462;47.384;19.218;2023-02-19T09:31:56;9.00;99.90
40758;DHT22;26462;47.384;19.218;2023-02-19T09:34:31;9.00;99.90
40758;DHT22;26462;47.384;19.218;2023-02-19T09:37:07;9.00;99.90
40758;DHT22;26462;47.384;19.218;2023-02-19T09:39:37;9.00;99.90
40758;DHT22;26462;47.384;19.218;2023-02-19T09:42:31;9.00;99.90
40758;DHT22;26462;47.384;19.218;2023-02-19T09:45:00;9.00;99.90
40758;DHT22;26462;47.384;19.218;2023-02-19T09:47:32;9.00;99.90
40758;DHT22;26462;47.384;19.218;2023-02-19T09:50:07;9.10;99.90
40758;DHT22;26462;47.384;19.218;2023-02-19T09:53:11;9.10;99.90
40758;DHT22;26462;47.384;19.218;2023-02-19T09:55:43;9.10;99.90
40758;DHT22;26462;47.384;19.218;2023-02-19T10:00:54;9.20;99.90
40758;DHT22;26462;47.384;19.218;2023-02-19T10:03:28;9.20;99.90
40758;DHT22;26462;47.384;19.218;2023-02-19T10:06:07;9.20;99.90
40758;DHT22;26462;47.384;19.218;2023-02-19T10:08:40;9.30;99.90
40758;DHT22;26462;47.384;19.218;2023-02-19T10:14:50;9.40;99.90
40758;DHT22;26462;47.384;19.218;2023-02-19T10:17:30;9.60;99.90
40758;DHT22;26462;47.384;19.218;2023-02-19T10:19:58;9.80;99.90
40758;DHT22;26462;47.384;19.218;2023-02-19T10:22:27;10.20;99.90
40758;DHT22;26462;47.384;19.218;2023-02-19T10:24:56;10.30;99.90
40758;DHT22;26462;47.384;19.218;2023-02-19T10:27:28;10.30;99.90
40758;DHT22;26462;47.384;19.218;2023-02-19T10:30:00;10.30;99.90
40758;DHT22;26462;47.384;19.218;2023-02-19T10:32:29;10.60;99.90
40758;DHT22;26462;47.384;19.218;2023-02-19T10:35:26;10.90;99.90
40758;DHT22;26462;47.384;19.218;2023-02-19T10:37:57;11.20;99.90
40758;DHT22;26462;47.384;19.218;2023-02-19T10:40:59;11.50;99.90
40758;DHT22;26462;47.384;19.218;2023-02-19T10:43:29;11.40;99.90
40758;DHT22;26462;47.384;19.218;2023-02-19T10:46:15;11.60;99.90
40758;DHT22;26462;47.384;19.218;2023-02-19T10:51:43;11.60;99.90
40758;DHT22;26462;47.384;19.218;2023-02-19T10:54:27;11.40;99.90
40758;DHT22;26462;47.384;19.218;2023-02-19T10:57:23;11.30;99.90
40758;DHT22;26462;47.384;19.218;2023-02-19T10:59:59;11.30;99.90
40758;DHT22;26462;47.384;19.218;2023-02-19T11:02:29;11.30;99.90
40758;DHT22;26462;47.384;19.218;2023-02-19T11:07:52;11.50;99.90
40758;DHT22;26462;47.384;19.218;2023-02-19T11:12:57;11.80;99.90
40758;DHT22;26462;47.384;19.218;2023-02-19T11:15:34;12.00;99.90
40758;DHT22;26462;47.384;19.218;2023-02-19T11:18:09;12.10;99.90
40758;DHT22;26462;47.384;19.218;2023-02-19T11:20:49;12.30;99.90
40758;DHT22;26462;47.384;19.218;2023-02-19T11:26:06;12.50;99.90
40758;DHT22;26462;47.384;19.218;2023-02-19T11:28:43;12.80;99.90
40758;DHT22;26462;47.384;19.218;2023-02-19T11:37:14;12.90;99.90
40758;DHT22;26462;47.384;19.218;2023-02-19T11:39:43;13.50;99.90
40758;DHT22;26462;47.384;19.218;2023-02-19T11:42:36;13.60;99.00
40758;DHT22;26462;47.384;19.218;2023-02-19T11:51:42;14.10;92.00
40758;DHT22;26462;47.384;19.218;2023-02-19T11:58:14;14.20;91.00
40758;DHT22;26462;47.384;19.218;2023-02-19T12:00:28;14.30;90.50
40758;DHT22;26462;47.384;19.218;2023-02-19T12:11:30;14.60;89.30
40758;DHT22;26462;47.384;19.218;2023-02-19T12:19:59;14.60;87.10
40758;DHT22;26462;47.384;19.218;2023-02-19T12:22:36;14.50;87.00
40758;DHT22;26462;47.384;19.218;2023-02-19T12:45:14;14.30;85.00
40758;DHT22;26462;47.384;19.218;2023-02-19T12:47:39;14.30;84.90
40758;DHT22;26462;47.384;19.218;2023-02-19T12:50:20;14.30;84.90
40758;DHT22;26462;47.384;19.218;2023-02-19T12:52:58;14.20;84.20
40758;DHT22;26462;47.384;19.218;2023-02-19T12:55:36;14.20;84.50
40758;DHT22;26462;47.384;19.218;2023-02-19T12:58:10;14.20;84.70
40758;DHT22;26462;47.384;19.218;2023-02-19T13:00:46;14.20;84.70
40758;DHT22;26462;47.384;19.218;2023-02-19T13:03:30;14.30;85.00
40758;DHT22;26462;47.384;19.218;2023-02-19T13:09:02;14.20;86.10
40758;DHT22;26462;47.384;19.218;2023-02-19T13:11:41;14.20;85.50
40758;DHT22;26462;47.384;19.218;2023-02-19T13:14:38;14.20;86.50
40758;DHT22;26462;47.384;19.218;2023-02-19T13:20:09;14.10;87.20
40758;DHT22;26462;47.384;19.218;2023-02-19T13:22:47;14.00;87.80
40758;DHT22;26462;47.384;19.218;2023-02-19T13:37:24;12.80;92.00
40758;DHT22;26462;47.384;19.218;2023-02-19T13:39:53;12.80;92.10
40758;DHT22;26462;47.384;19.218;2023-02-19T13:42:32;12.90;92.10
40758;DHT22;26462;47.384;19.218;2023-02-19T13:45:03;13.00;91.80
40758;DHT22;26462;47.384;19.218;2023-02-19T13:50:31;13.60;91.30
40758;DHT22;26462;47.384;19.218;2023-02-19T13:53:00;13.60;91.00
40758;DHT22;26462;47.384;19.218;2023-02-19T13:55:44;13.70;91.10
40758;DHT22;26462;47.384;19.218;2023-02-19T14:01:04;13.60;91.00
40758;DHT22;26462;47.384;19.218;2023-02-19T14:06:07;13.20;93.10
40758;DHT22;26462;47.384;19.218;2023-02-19T14:11:14;12.80;92.40
40758;DHT22;26462;47.384;19.218;2023-02-19T14:19:13;12.30;93.10
40758;DHT22;26462;47.384;19.218;2023-02-19T14:21:41;11.80;95.70
40758;DHT22;26462;47.384;19.218;2023-02-19T14:24:12;11.50;99.20
40758;DHT22;26462;47.384;19.218;2023-02-19T14:26:41;11.20;99.90
40758;DHT22;26462;47.384;19.218;2023-02-19T14:29:13;11.00;99.90
40758;DHT22;26462;47.384;19.218;2023-02-19T14:31:47;10.80;99.90
40758;DHT22;26462;47.384;19.218;2023-02-19T14:34:21;10.60;99.90
40758;DHT22;26462;47.384;19.218;2023-02-19T14:36:58;10.60;99.90
40758;DHT22;26462;47.384;19.218;2023-02-19T14:39:34;10.60;99.90
40758;DHT22;26462;47.384;19.218;2023-02-19T14:42:11;10.60;99.90
40758;DHT22;26462;47.384;19.218;2023-02-19T14:44:50;10.60;99.90
40758;DHT22;26462;47.384;19.218;2023-02-19T14:47:21;10.60;99.90
40758;DHT22;26462;47.384;19.218;2023-02-19T14:55:26;10.70;99.90
40758;DHT22;26462;47.384;19.218;2023-02-19T14:57:57;10.70;99.90
40758;DHT22;26462;47.384;19.218;2023-02-19T15:00:34;10.60;99.90
40758;DHT22;26462;47.384;19.218;2023-02-19T15:03:05;10.50;99.90
40758;DHT22;26462;47.384;19.218;2023-02-19T15:05:35;10.50;99.90
40758;DHT22;26462;47.384;19.218;2023-02-19T15:08:10;10.50;99.90
40758;DHT22;26462;47.384;19.218;2023-02-19T15:10:41;10.50;99.90
40758;DHT22;26462;47.384;19.218;2023-02-19T15:13:15;10.40;99.90
40758;DHT22;26462;47.384;19.218;2023-02-19T15:15:46;10.40;99.90
40758;DHT22;26462;47.384;19.218;2023-02-19T15:18:24;10.30;99.90
40758;DHT22;26462;47.384;19.218;2023-02-19T15:21:02;10.30;99.90
40758;DHT22;26462;47.384;19.218;2023-02-19T15:23:31;10.30;99.90
40758;DHT22;26462;47.384;19.218;2023-02-19T15:26:36;10.30;99.90
40758;DHT22;26462;47.384;19.218;2023-02-19T15:29:18;10.40;99.90
40758;DHT22;26462;47.384;19.218;2023-02-19T15:31:55;10.40;99.90
40758;DHT22;26462;47.384;19.218;2023-02-19T15:34:30;10.40;99.90
40758;DHT22;26462;47.384;19.218;2023-02-19T15:37:06;10.40;99.90
40758;DHT22;26462;47.384;19.218;2023-02-19T15:39:40;10.40;99.90
40758;DHT22;26462;47.384;19.218;2023-02-19T15:42:19;10.40;99.90
40758;DHT22;26462;47.384;19.218;2023-02-19T15:47:47;10.30;99.90
40758;DHT22;26462;47.384;19.218;2023-02-19T15:50:28;10.20;99.90
40758;DHT22;26462;47.384;19.218;2023-02-19T15:55:38;10.20;99.90
40758;DHT22;26462;47.384;19.218;2023-02-19T15:58:23;10.20;99.90
40758;DHT22;26462;47.384;19.218;2023-02-19T16:01:05;10.10;99.90
40758;DHT22;26462;47.384;19.218;2023-02-19T16:03:35;10.10;99.90
40758;DHT22;26462;47.384;19.218;2023-02-19T16:08:43;10.00;99.90
40758;DHT22;26462;47.384;19.218;2023-02-19T16:11:25;10.00;99.90
40758;DHT22;26462;47.384;19.218;2023-02-19T16:14:34;10.00;99.90
40758;DHT22;26462;47.384;19.218;2023-02-19T16:17:18;10.00;99.90
40758;DHT22;26462;47.384;19.218;2023-02-19T16:19:55;10.00;99.90
40758;DHT22;26462;47.384;19.218;2023-02-19T16:22:29;10.00;99.90
40758;DHT22;26462;47.384;19.218;2023-02-19T16:25:04;10.20;99.90
40758;DHT22;26462;47.384;19.218;2023-02-19T16:27:39;10.10;99.90
40758;DHT22;26462;47.384;19.218;2023-02-19T16:30:19;10.10;99.90
40758;DHT22;26462;47.384;19.218;2023-02-19T16:35:53;10.20;99.90
40758;DHT22;26462;47.384;19.218;2023-02-19T16:38:21;10.30;99.90
40758;DHT22;26462;47.384;19.218;2023-02-19T16:41:05;10.20;99.90
40758;DHT22;26462;47.384;19.218;2023-02-19T16:43:41;10.20;99.90
40758;DHT22;26462;47.384;19.218;2023-02-19T16:46:10;10.30;99.90
40758;DHT22;26462;47.384;19.218;2023-02-19T16:48:40;10.30;99.90
40758;DHT22;26462;47.384;19.218;2023-02-19T16:51:23;10.30;99.90
40758;DHT22;26462;47.384;19.218;2023-02-19T16:53:52;10.30;99.90
40758;DHT22;26462;47.384;19.218;2023-02-19T16:56:20;10.30;99.90
40758;DHT22;26462;47.384;19.218;2023-02-19T16:58:49;9.80;99.90
40758;DHT22;26462;47.384;19.218;2023-02-19T17:01:17;10.20;99.90
40758;DHT22;26462;47.384;19.218;2023-02-19T17:03:46;10.20;99.90
40758;DHT22;26462;47.384;19.218;2023-02-19T17:06:15;10.20;99.90
40758;DHT22;26462;47.384;19.218;2023-02-19T17:08:45;10.10;99.90
40758;DHT22;26462;47.384;19.218;2023-02-19T17:11:14;10.00;99.90
40758;DHT22;26462;47.384;19.218;2023-02-19T17:13:45;10.00;99.90
40758;DHT22;26462;47.384;19.218;2023-02-19T17:16:20;9.90;99.90
40758;DHT22;26462;47.384;19.218;2023-02-19T17:18:50;9.80;99.90
40758;DHT22;26462;47.384;19.218;2023-02-19T17:21:26;9.70;99.90
40758;DHT22;26462;47.384;19.218;2023-02-19T17:23:55;9.70;99.90
40758;DHT22;26462;47.384;19.218;2023-02-19T17:26:25;9.70;99.90
40758;DHT22;26462;47.384;19.218;2023-02-19T17:28:58;9.70;99.90
40758;DHT22;26462;47.384;19.218;2023-02-19T17:31:28;9.60;99.90
40758;DHT22;26462;47.384;19.218;2023-02-19T17:33:57;9.60;99.90
40758;DHT22;26462;47.384;19.218;2023-02-19T17:36:28;9.60;99.90
40758;DHT22;26462;47.384;19.218;2023-02-19T17:39:02;9.60;99.90
40758;DHT22;26462;47.384;19.218;2023-02-19T17:41:30;9.50;99.90
40758;DHT22;26462;47.384;19.218;2023-02-19T17:43:59;9.50;99.90
40758;DHT22;26462;47.384;19.218;2023-02-19T17:46:29;9.50;99.90
40758;DHT22;26462;47.384;19.218;2023-02-19T17:48:58;9.40;99.90
40758;DHT22;26462;47.384;19.218;2023-02-19T17:51:27;9.40;99.90
40758;DHT22;26462;47.384;19.218;2023-02-19T17:53:55;9.40;99.90
40758;DHT22;26462;47.384;19.218;2023-02-19T17:56:25;9.40;99.90
40758;DHT22;26462;47.384;19.218;2023-02-19T17:58:56;9.30;99.90
40758;DHT22;26462;47.384;19.218;2023-02-19T18:01:25;9.30;99.90
40758;DHT22;26462;47.384;19.218;2023-02-19T18:03:52;9.30;99.90
40758;DHT22;26462;47.384;19.218;2023-02-19T18:06:24;9.30;99.90
40758;DHT22;26462;47.384;19.218;2023-02-19T18:08:52;9.40;99.90
40758;DHT22;26462;47.384;19.218;2023-02-19T18:11:21;9.40;99.90
40758;DHT22;26462;47.384;19.218;2023-02-19T18:13:50;9.40;99.90
40758;DHT22;26462;47.384;19.218;2023-02-19T18:16:21;9.30;99.90
40758;DHT22;26462;47.384;19.218;2023-02-19T18:18:50;9.30;99.90
40758;DHT22;26462;47.384;19.218;2023-02-19T18:21:22;9.20;99.90
40758;DHT22;26462;47.384;19.218;2023-02-19T18:23:50;9.20;99.90
40758;DHT22;26462;47.384;19.218;2023-02-19T18:26:20;9.10;99.90
40758;DHT22;26462;47.384;19.218;2023-02-19T18:28:48;9.10;99.90
40758;DHT22;26462;47.384;19.218;2023-02-19T18:31:20;9.00;99.90
40758;DHT22;26462;47.384;19.218;2023-02-19T18:33:49;9.00;99.90
40758;DHT22;26462;47.384;19.218;2023-02-19T18:36:18;8.90;99.90
40758;DHT22;26462;47.384;19.218;2023-02-19T18:38:47;8.90;99.90